Time;durP1;ratioP1;P1;durP2;ratioP2;P2;SDS_P1;SDS_P2;PMS_P1;PMS_P2;Temp;Humidity;BMP_temperature;BMP_pressure;BME280_temperature;BME280_humidity;BME280_pressure;Samples;Min_cycle;Max_cycle;Signal;HPM_P1;HPM_P2
2022/06/04 00:01:50;;;;;;;5.78;3.70;;;;;;;15.83;66.98;101048.94;1746982;82;21009;-63
2022/06/04 00:04:19;;;;;;;7.15;4.15;;;;;;;15.84;67.03;101043.73;1714095;83;21025;-63
2022/06/04 00:06:48;;;;;;;5.45;3.80;;;;;;;15.82;66.95;101048.62;1746662;82;21070;-63
2022/06/04 00:09:22;;;;;;;4.67;4.08;;;;;;;15.82;67.08;101053.30;1714139;83;21040;-63
2022/06/04 00:17:08;;;;;;;6.35;3.50;;;;;;;15.77;67.50;101047.05;1711364;82;21078;-63
2022/06/04 00:19:38;;;;;;;4.90;3.70;;;;;;;15.84;67.80;101052.55;1713949;84;21051;-63
2022/06/04 00:22:08;;;;;;;5.50;3.72;;;;;;;15.86;67.91;101049.03;1746872;82;21500;-63
2022/06/04 00:24:37;;;;;;;5.80;3.65;;;;;;;15.87;67.91;101059.03;1713939;83;21068;-63
2022/06/04 00:27:06;;;;;;;5.25;3.60;;;;;;;15.87;67.83;101047.97;1746669;82;21051;-64
2022/06/04 00:29:36;;;;;;;5.90;4.05;;;;;;;15.83;67.72;101048.94;1690239;84;21036;-64
2022/06/04 00:32:06;;;;;;;4.03;3.62;;;;;;;15.83;67.71;101052.23;1746489;82;21018;-62
2022/06/04 00:34:35;;;;;;;4.72;3.87;;;;;;;15.87;67.70;101048.50;1713878;83;21527;-62
2022/06/04 00:37:05;;;;;;;4.40;3.40;;;;;;;15.85;67.82;101036.28;1746748;82;21026;-63
2022/06/04 00:39:34;;;;;;;4.55;3.50;;;;;;;15.84;67.93;101042.88;1713760;84;21072;-63
2022/06/04 00:42:13;;;;;;;5.20;3.50;;;;;;;15.86;67.96;101040.75;1746710;82;21477;-64
2022/06/04 00:45:23;;;;;;;5.60;3.70;;;;;;;15.89;67.97;101039.46;1713941;83;21255;-62
2022/06/04 00:47:51;;;;;;;5.05;3.90;;;;;;;15.91;67.99;101035.95;1755985;82;21098;-65
2022/06/04 00:50:21;;;;;;;6.47;4.10;;;;;;;15.90;68.00;101030.95;1720205;83;21027;-63
2022/06/04 00:52:51;;;;;;;5.20;3.85;;;;;;;15.91;67.97;101022.98;1756149;82;21018;-62
2022/06/04 00:55:20;;;;;;;6.08;3.87;;;;;;;15.91;67.91;101025.74;1719951;83;21198;-63
2022/06/04 00:58:14;;;;;;;4.17;3.77;;;;;;;15.91;67.92;101029.04;1756231;81;21066;-63
2022/06/04 01:00:51;;;;;;;6.03;3.90;;;;;;;15.89;68.02;101020.97;1720122;83;21518;-62
2022/06/04 01:03:47;;;;;;;;;;;;;;;15.90;68.02;101022.66;1758963;81;21031;-63
2022/06/04 01:06:36;;;;;;;5.50;3.47;;;;;;;15.93;68.15;101024.14;1756141;81;20181;-62
2022/06/04 01:09:18;;;;;;;6.12;3.72;;;;;;;15.91;68.32;101027.66;1756009;82;21070;-62
2022/06/04 01:12:10;;;;;;;6.95;3.60;;;;;;;15.86;68.56;101022.78;1756287;82;21023;-63
2022/06/04 01:15:12;;;;;;;7.00;4.25;;;;;;;15.81;68.59;101014.30;1720145;83;21035;-62
2022/06/04 01:17:53;;;;;;;4.22;3.60;;;;;;;15.78;68.75;101014.73;1756264;81;21031;-61
2022/06/04 01:20:27;;;;;;;6.58;3.90;;;;;;;15.78;68.86;101017.49;1720105;83;21491;-62
2022/06/04 01:23:17;;;;;;;4.85;3.75;;;;;;;15.78;68.76;101021.11;1756423;81;21470;-62
2022/06/04 01:26:03;;;;;;;4.00;3.20;;;;;;;15.75;68.60;101022.92;1720106;83;21541;-62
2022/06/04 01:28:32;;;;;;;6.22;3.17;;;;;;;15.73;68.54;101025.05;1756524;82;21046;-62
2022/06/04 01:31:03;;;;;;;4.83;2.95;;;;;;;15.75;68.43;101023.45;1720347;83;21068;-61
2022/06/04 01:33:42;;;;;;;5.87;3.25;;;;;;;15.73;68.32;101025.05;1756275;81;21550;-62
2022/06/04 01:36:24;;;;;;;5.80;3.12;;;;;;;15.73;68.32;101015.38;1720124;83;21512;-62
2022/06/04 01:38:58;;;;;;;3.90;3.25;;;;;;;15.74;68.50;101015.70;1756222;82;21015;-64
2022/06/04 01:41:33;;;;;;;3.60;3.30;;;;;;;15.72;68.62;101011.45;1720377;83;21090;-62
2022/06/04 01:44:13;;;;;;;4.87;2.92;;;;;;;15.72;68.61;101020.59;1756643;81;20990;-63
2022/06/04 01:46:51;;;;;;;4.62;3.60;;;;;;;15.69;68.59;101025.17;1722624;83;21488;-63
2022/06/04 01:49:43;;;;;;;4.10;3.22;;;;;;;15.63;68.62;101021.89;1693128;85;21040;-63
2022/06/04 01:52:26;;;;;;;6.12;3.30;;;;;;;15.59;68.75;101019.74;1693339;84;21467;-62
2022/06/04 01:55:00;;;;;;;4.22;3.30;;;;;;;15.59;68.88;101010.07;1705611;84;21456;-62
2022/06/04 01:57:53;;;;;;;5.42;3.35;;;;;;;15.63;68.94;101003.08;1756917;82;21512;-63
2022/06/04 02:00:33;;;;;;;6.67;3.37;;;;;;;15.64;68.96;101001.48;1723704;83;21517;-62
2022/06/04 02:03:37;;;;;;;5.47;3.50;;;;;;;15.61;69.09;100999.16;1677256;85;21025;-62
2022/06/04 02:06:11;;;;;;;5.05;3.20;;;;;;;15.59;69.23;100995.73;1705827;84;21055;-62
2022/06/04 02:08:51;;;;;;;4.10;3.50;;;;;;;15.55;69.41;101004.09;1757305;82;21494;-62
2022/06/04 02:11:22;;;;;;;4.15;3.60;;;;;;;15.48;69.56;101004.64;1723848;83;21036;-62
2022/06/04 02:13:53;;;;;;;6.35;3.40;;;;;;;15.42;69.80;101002.20;1705541;84;21494;-63
2022/06/04 02:16:32;;;;;;;4.35;3.22;;;;;;;15.42;69.87;101000.83;1757107;81;21046;-63
2022/06/04 02:19:01;;;;;;;10.65;4.53;;;;;;;15.44;69.86;101009.75;1723993;83;21068;-63
2022/06/04 02:21:31;;;;;;;5.15;3.90;;;;;;;15.48;69.90;101006.02;1693306;85;20984;-62
2022/06/04 02:23:59;;;;;;;10.35;4.22;;;;;;;15.52;69.80;101010.05;1705541;84;21463;-62
2022/06/04 02:26:28;;;;;;;6.30;4.17;;;;;;;15.55;69.74;101017.38;1757096;82;21058;-62
2022/06/04 02:28:58;;;;;;;6.87;3.98;;;;;;;15.57;69.67;101014.93;1723933;83;21080;-63
2022/06/04 02:31:54;;;;;;;6.08;4.00;;;;;;;15.58;69.63;101027.18;1693411;85;21060;-62
2022/06/04 02:34:31;;;;;;;4.10;3.70;;;;;;;15.60;69.65;101024.20;1723613;83;21056;-63
2022/06/04 02:37:16;;;;;;;5.50;3.98;;;;;;;15.60;69.58;101033.34;1723694;83;21052;-63
2022/06/04 02:40:00;;;;;;;4.90;3.75;;;;;;;15.59;69.56;101037.70;1723655;83;21413;-64
2022/06/04 02:42:46;;;;;;;12.68;4.42;;;;;;;15.63;69.72;101037.61;1723797;83;21139;-62
2022/06/04 02:45:24;;;;;;;9.93;4.20;;;;;;;15.66;69.69;101034.42;1723981;83;21064;-63
2022/06/04 02:47:56;;;;;;;;;;;;;;;15.67;69.72;101030.59;1726568;83;20993;-62
2022/06/04 02:50:42;;;;;;;5.70;3.80;;;;;;;15.69;69.77;101030.70;1723679;83;20164;-63
2022/06/04 02:53:11;;;;;;;6.90;4.20;;;;;;;15.69;69.75;101034.84;1723645;83;21017;-62
2022/06/04 02:56:06;;;;;;;8.75;4.47;;;;;;;15.68;69.73;101038.66;1723757;83;21069;-63
2022/06/04 02:58:34;;;;;;;8.30;4.33;;;;;;;15.70;69.67;101041.21;1723622;83;21004;-64
2022/06/04 03:01:03;;;;;;;7.47;3.87;;;;;;;15.72;69.73;101037.70;1723899;83;21084;-62
2022/06/04 03:03:33;;;;;;;6.40;4.20;;;;;;;15.75;70.00;101038.66;1723712;83;21067;-63
2022/06/04 03:06:04;;;;;;;8.80;4.75;;;;;;;15.80;70.16;101036.09;1699510;83;21504;-62
2022/06/04 03:08:38;;;;;;;9.60;4.30;;;;;;;15.84;70.25;101042.34;1723847;83;21527;-62
2022/06/04 03:11:08;;;;;;;7.40;4.78;;;;;;;15.88;70.13;101038.62;1723914;83;21433;-63
2022/06/04 03:13:37;;;;;;;6.87;4.12;;;;;;;15.97;70.01;101039.22;1723886;83;21522;-63
2022/06/04 03:16:08;;;;;;;6.62;4.00;;;;;;;15.98;69.83;101041.77;1723952;83;21025;-62
2022/06/04 03:18:37;;;;;;;6.20;4.22;;;;;;;16.00;69.71;101047.08;1723982;83;21492;-63
2022/06/04 03:21:06;;;;;;;7.78;4.33;;;;;;;16.04;69.59;101045.58;1723603;83;21550;-63
2022/06/04 03:23:35;;;;;;;7.60;4.65;;;;;;;16.05;69.53;101037.06;1723860;83;21076;-63
2022/06/04 03:26:04;;;;;;;7.78;4.90;;;;;;;16.08;69.55;101040.78;1724010;83;21036;-63
2022/06/04 03:28:33;;;;;;;7.22;4.03;;;;;;;16.13;69.52;101032.67;1724008;83;21514;-63
2022/06/04 03:31:02;;;;;;;6.50;4.67;;;;;;;16.15;69.45;101033.30;1723830;83;21100;-62
2022/06/04 03:33:31;;;;;;;6.62;4.45;;;;;;;16.12;69.51;101021.30;1723568;83;21040;-63
2022/06/04 03:36:00;;;;;;;6.80;4.42;;;;;;;16.14;69.60;101021.08;1723764;83;21036;-63
2022/06/04 03:38:28;;;;;;;7.62;4.42;;;;;;;16.16;69.65;101026.71;1723685;83;21052;-62
2022/06/04 03:40:58;;;;;;;7.05;4.30;;;;;;;16.20;69.61;101029.03;1723588;83;21421;-61
2022/06/04 03:43:27;;;;;;;4.83;4.33;;;;;;;16.25;69.65;101035.61;1724195;83;21064;-61
2022/06/04 03:45:56;;;;;;;7.08;4.70;;;;;;;16.30;69.62;101034.98;1724249;83;21063;-62
2022/06/04 03:48:24;;;;;;;9.05;4.85;;;;;;;16.30;69.43;101033.59;1761277;81;21089;-62
2022/06/04 03:50:53;;;;;;;7.35;5.22;;;;;;;16.36;69.05;101035.48;1730321;83;21458;-63
2022/06/04 03:53:23;;;;;;;7.97;5.08;;;;;;;16.42;68.46;101036.83;1761441;81;21038;-63
2022/06/04 03:55:53;;;;;;;10.88;5.50;;;;;;;16.49;67.79;101032.64;1730747;83;21502;-63
2022/06/04 03:58:29;;;;;;;7.83;5.20;;;;;;;16.57;67.25;101028.77;1761528;81;21062;-63
2022/06/04 04:00:54;;;;;;;7.60;5.12;;;;;;;16.65;66.60;101032.16;1729204;83;21057;-61
2022/06/04 04:03:23;;;;;;;10.48;5.17;;;;;;;16.71;66.19;101032.65;1761563;81;21500;-63
2022/06/04 04:05:54;;;;;;;7.65;5.30;;;;;;;16.79;65.79;101044.84;1730695;83;21014;-63
2022/06/04 04:08:24;;;;;;;7.40;4.65;;;;;;;16.87;65.57;101042.88;1761725;81;20983;-64
2022/06/04 04:10:53;;;;;;;6.67;4.58;;;;;;;16.94;65.42;101043.70;1730406;83;21035;-64
2022/06/04 04:13:23;;;;;;;5.92;4.50;;;;;;;17.03;65.52;101042.36;1761803;81;21042;-63
2022/06/04 04:15:53;;;;;;;7.12;4.60;;;;;;;17.12;65.31;101042.40;1730464;83;21431;-63
2022/06/04 04:18:22;;;;;;;9.63;4.97;;;;;;;17.18;65.46;101049.80;1761315;81;21074;-62
2022/06/04 04:20:52;;;;;;;9.03;4.90;;;;;;;17.23;65.64;101058.28;1730631;83;21074;-64
2022/06/04 04:23:21;;;;;;;7.37;4.58;;;;;;;17.26;65.22;101049.52;1761568;81;21030;-63
2022/06/04 04:25:50;;;;;;;6.83;3.92;;;;;;;17.33;64.28;101051.70;1730586;83;21058;-62
2022/06/04 04:28:19;;;;;;;8.75;3.80;;;;;;;17.42;64.19;101050.87;1761889;81;21505;-64
2022/06/04 04:30:48;;;;;;;6.97;3.85;;;;;;;17.47;63.77;101051.04;1730490;83;21497;-64
2022/06/04 04:33:19;;;;;;;13.83;4.97;;;;;;;17.53;63.00;101057.59;1761726;81;21474;-62
2022/06/04 04:35:48;;;;;;;8.63;3.98;;;;;;;17.58;63.23;101050.87;1730591;83;21050;-63
2022/06/04 04:38:18;;;;;;;5.47;3.00;;;;;;;17.63;61.73;101051.88;1761880;81;21454;-63
2022/06/04 04:40:48;;;;;;;6.65;3.35;;;;;;;17.72;60.39;101050.53;1730838;83;21003;-62
2022/06/04 04:43:17;;;;;;;3.12;2.40;;;;;;;17.83;58.69;101055.02;1761573;81;21426;-63
2022/06/04 04:45:46;;;;;;;2.85;2.17;;;;;;;17.95;57.67;101054.02;1730677;83;21054;-63
2022/06/04 04:48:16;;;;;;;2.95;2.12;;;;;;;18.09;56.51;101052.48;1747475;81;21033;-63
2022/06/04 04:50:47;;;;;;;2.67;1.90;;;;;;;18.23;55.66;101045.73;1746779;82;21062;-65
2022/06/04 04:53:17;;;;;;;3.15;1.90;;;;;;;18.36;54.62;101042.24;1746905;81;21022;-63
2022/06/04 04:55:47;;;;;;;4.03;2.10;;;;;;;18.52;53.68;101041.29;1746694;82;21442;-63
2022/06/04 04:58:17;;;;;;;6.83;2.58;;;;;;;18.68;53.35;101038.73;1746660;82;21508;-62
2022/06/04 05:00:46;;;;;;;4.20;1.95;;;;;;;18.90;52.32;101036.30;1746621;81;21410;-64
2022/06/04 05:03:15;;;;;;;8.80;2.30;;;;;;;19.19;51.98;101040.66;1746666;81;21454;-64
2022/06/04 05:05:44;;;;;;;2.60;1.90;;;;;;;19.50;50.55;101039.48;1746729;81;21065;-63
2022/06/04 05:08:15;;;;;;;2.15;1.90;;;;;;;19.77;49.92;101046.31;1746609;82;20998;-63
2022/06/04 05:10:44;;;;;;;2.75;1.80;;;;;;;20.03;48.69;101036.60;1746601;81;21045;-61
2022/06/04 05:13:12;;;;;;;4.05;1.90;;;;;;;20.28;48.55;101036.33;1746869;81;20993;-62
2022/06/04 05:15:43;;;;;;;7.72;2.30;;;;;;;20.57;47.51;101040.02;1746598;82;20982;-62
2022/06/04 05:18:12;;;;;;;4.90;1.80;;;;;;;20.85;46.64;101037.80;1746829;82;21033;-62
2022/06/04 05:20:41;;;;;;;7.75;2.35;;;;;;;21.07;46.18;101045.73;1746781;81;21449;-63
2022/06/04 05:23:11;;;;;;;4.15;2.30;;;;;;;21.32;45.37;101043.96;1746862;81;21057;-62
2022/06/04 05:25:40;;;;;;;5.35;2.10;;;;;;;21.54;45.40;101039.89;1746728;81;21022;-64
2022/06/04 05:28:09;;;;;;;2.77;2.30;;;;;;;21.76;44.80;101044.13;1746706;82;21450;-64
2022/06/04 05:30:39;;;;;;;3.62;2.20;;;;;;;22.00;44.16;101041.41;1747000;81;21433;-62
2022/06/04 05:33:08;;;;;;;7.87;2.10;;;;;;;22.21;43.58;101043.14;1746821;82;21025;-63
2022/06/04 05:35:38;;;;;;;4.35;2.30;;;;;;;22.44;43.60;101036.74;1746563;81;21057;-62
2022/06/04 05:38:07;;;;;;;4.22;2.65;;;;;;;22.69;43.24;101033.95;1746681;81;21013;-63
2022/06/04 05:40:36;;;;;;;5.53;3.05;;;;;;;22.98;42.43;101028.45;1746852;81;21037;-62
2022/06/04 05:43:07;;;;;;;3.55;2.75;;;;;;;23.16;41.66;101023.57;1746514;82;21434;-63
2022/06/04 05:45:36;;;;;;;5.60;2.85;;;;;;;23.22;41.49;101021.95;1746680;82;21034;-63
2022/06/04 05:48:05;;;;;;;2.83;2.50;;;;;;;23.37;41.60;101026.27;1755216;81;21010;-62
2022/06/04 05:50:34;;;;;;;2.92;2.60;;;;;;;23.54;41.65;101021.95;1719948;83;21030;-62
2022/06/04 05:53:03;;;;;;;4.60;2.40;;;;;;;23.84;40.93;101028.90;1756148;81;21063;-62
2022/06/04 05:55:32;;;;;;;4.25;2.10;;;;;;;24.01;39.92;101029.56;1720238;83;21082;-61
2022/06/04 05:58:02;;;;;;;7.85;2.10;;;;;;;24.13;39.22;101025.17;1726051;82;21027;-63
2022/06/04 06:00:31;;;;;;;4.08;1.90;;;;;;;24.28;39.34;101032.27;1720038;83;21510;-63
2022/06/04 06:03:00;;;;;;;3.67;2.02;;;;;;;24.46;38.43;101021.14;1756333;81;21082;-62
2022/06/04 06:05:31;;;;;;;2.55;1.80;;;;;;;24.57;38.38;101020.89;1756502;81;21439;-62
2022/06/04 06:08:00;;;;;;;2.22;1.60;;;;;;;24.71;38.79;101026.84;1719870;83;21492;-63
2022/06/04 06:10:30;;;;;;;3.52;1.90;;;;;;;24.95;37.55;101026.61;1755532;82;21089;-63
2022/06/04 06:13:00;;;;;;;2.50;1.90;;;;;;;25.13;37.02;101018.25;1719913;83;21504;-64
2022/06/04 06:15:29;;;;;;;4.33;2.10;;;;;;;25.26;36.92;101019.66;1756089;82;21461;-63
2022/06/04 06:17:59;;;;;;;3.80;1.90;;;;;;;25.25;36.60;101013.77;1756203;81;21034;-62
2022/06/04 06:20:28;;;;;;;5.58;2.20;;;;;;;25.35;36.96;101017.97;1719859;83;21038;-63
2022/06/04 06:22:57;;;;;;;5.35;1.90;;;;;;;25.55;35.49;101013.77;1756094;81;21011;-64
2022/06/04 06:25:26;;;;;;;2.58;1.75;;;;;;;25.65;35.42;101009.27;1719840;83;21022;-62
2022/06/04 06:27:57;;;;;;;4.05;1.98;;;;;;;25.71;35.08;101005.36;1756028;81;21031;-62
2022/06/04 06:30:27;;;;;;;2.85;1.60;;;;;;;25.78;34.92;101006.74;1727075;82;21070;-63
2022/06/04 06:32:58;;;;;;;4.97;1.65;;;;;;;25.93;34.41;101003.05;1726996;82;21051;-63
2022/06/04 06:35:27;;;;;;;1.42;1.20;;;;;;;26.11;34.32;100998.25;1756035;82;21188;-63
2022/06/04 06:37:58;;;;;;;1.95;1.55;;;;;;;26.28;32.11;100999.87;1719663;83;21003;-64
2022/06/04 06:40:27;;;;;;;1.70;1.40;;;;;;;26.41;32.70;101000.67;1756402;82;21081;-65
2022/06/04 06:42:56;;;;;;;3.37;1.55;;;;;;;26.50;30.95;100995.56;1756321;81;21026;-63
2022/06/04 06:45:26;;;;;;;2.40;1.50;;;;;;;26.55;30.76;100987.67;1719764;83;21051;-63
2022/06/04 06:47:56;;;;;;;3.42;1.62;;;;;;;26.58;31.22;100978.66;1656253;86;21114;-64
2022/06/04 06:50:25;;;;;;;4.33;1.70;;;;;;;26.73;31.05;100972.13;1651283;87;21110;-63
2022/06/04 06:52:55;;;;;;;6.15;2.20;;;;;;;26.73;31.05;100972.13;1608637;88;21070;-64
2022/06/04 06:55:25;;;;;;;4.12;1.90;;;;;;;26.85;31.28;100969.22;1608226;89;21093;-62
2022/06/04 06:57:54;;;;;;;2.20;1.37;;;;;;;27.01;30.87;100967.16;1651216;87;21063;-63
2022/06/04 07:00:24;;;;;;;1.82;1.40;;;;;;;27.20;29.79;100972.07;1651558;87;21471;-62
2022/06/04 07:02:52;;;;;;;8.23;1.60;;;;;;;27.21;28.78;100971.77;1650809;87;21093;-63
2022/06/04 07:05:21;;;;;;;3.52;2.00;;;;;;;27.11;29.49;100967.64;1665153;83;21531;-62
2022/06/04 07:07:51;;;;;;;3.25;1.50;;;;;;;27.13;30.00;100968.19;1727680;83;21024;-62
2022/06/04 07:10:20;;;;;;;4.45;1.85;;;;;;;27.23;30.52;100968.09;1727464;83;21119;-62
2022/06/04 07:12:50;;;;;;;5.05;2.47;;;;;;;27.29;30.67;100954.25;1727504;83;21093;-63
2022/06/04 07:15:22;;;;;;;3.30;1.57;;;;;;;27.29;30.67;100954.25;1726961;83;21529;-63
2022/06/04 07:17:51;;;;;;;2.08;1.67;;;;;;;27.29;29.42;100955.66;1727732;83;21100;-63
2022/06/04 07:20:20;;;;;;;3.98;1.67;;;;;;;27.04;30.21;100944.64;1727713;83;21063;-63
2022/06/04 07:22:50;;;;;;;2.45;1.52;;;;;;;27.03;30.86;100930.30;1727816;83;21055;-64
2022/06/04 07:25:21;;;;;;;4.62;1.70;;;;;;;27.16;30.91;100925.39;1727740;83;21496;-64
2022/06/04 07:27:51;;;;;;;3.45;1.60;;;;;;;27.39;30.37;100932.23;1727728;83;21515;-62
2022/06/04 07:30:23;;;;;;;3.00;1.60;;;;;;;27.41;30.23;100936.43;1727770;83;21087;-63
2022/06/04 07:32:53;;;;;;;2.85;1.50;;;;;;;26.99;30.39;100932.86;1727477;83;21028;-63
2022/06/04 07:35:24;;;;;;;4.00;2.45;;;;;;;26.99;30.39;100932.86;1727649;83;21079;-62
2022/06/04 07:37:53;;;;;;;3.70;1.80;;;;;;;26.97;30.80;100922.44;1727762;83;21457;-62
2022/06/04 07:40:21;;;;;;;3.33;1.70;;;;;;;27.10;30.60;100921.79;1726793;83;21113;-65
2022/06/04 07:42:51;;;;;;;3.30;1.65;;;;;;;27.15;29.97;100918.92;1727462;83;21088;-63
2022/06/04 07:45:20;;;;;;;3.45;1.98;;;;;;;27.27;30.37;100917.69;1727975;83;21048;-63
2022/06/04 07:47:49;;;;;;;2.20;1.50;;;;;;;27.27;30.37;100917.69;1737813;82;21054;-63
2022/06/04 07:50:18;;;;;;;1.82;1.30;;;;;;;27.77;26.65;100917.19;1756461;82;21058;-63
2022/06/04 07:52:47;;;;;;;2.77;1.50;;;;;;;27.77;26.65;100917.19;1722000;82;21038;-63
2022/06/04 07:55:16;;;;;;;3.60;1.40;;;;;;;27.84;25.62;100915.42;1720225;83;21150;-63
2022/06/04 07:57:45;;;;;;;2.95;1.50;;;;;;;27.80;26.23;100910.12;1758235;81;21081;-62
2022/06/04 08:00:15;;;;;;;2.02;1.60;;;;;;;28.02;26.23;100912.41;1762274;81;21026;-63
2022/06/04 08:02:45;;;;;;;1.57;1.30;;;;;;;28.22;26.17;100915.52;1757983;81;21022;-64
2022/06/04 08:05:16;;;;;;;2.98;1.45;;;;;;;28.37;26.79;100915.34;1756212;82;21064;-65
2022/06/04 08:07:45;;;;;;;3.50;1.40;;;;;;;28.47;26.05;100912.36;1756143;82;21018;-64
2022/06/04 08:10:14;;;;;;;2.72;1.55;;;;;;;28.49;25.76;100911.48;1764624;80;21441;-64
2022/06/04 08:12:56;;;;;;;2.08;1.80;;;;;;;28.37;26.80;100909.70;1693457;84;20994;-65
2022/06/04 08:15:24;;;;;;;3.08;1.72;;;;;;;28.52;26.94;100906.64;1693604;85;21073;-64
2022/06/04 08:17:53;;;;;;;3.58;1.57;;;;;;;28.68;27.05;100901.06;1693816;85;21093;-65
2022/06/04 08:20:21;;;;;;;1.98;1.50;;;;;;;28.78;26.74;100909.09;1693660;85;21082;-63
2022/06/04 08:22:50;;;;;;;3.52;1.57;;;;;;;29.02;26.46;100907.02;1693366;85;21002;-63
2022/06/04 08:25:20;;;;;;;2.17;1.72;;;;;;;28.99;26.12;100897.76;1670785;85;21107;-64
2022/06/04 08:27:49;;;;;;;2.20;1.60;;;;;;;28.67;26.39;100891.50;1661820;86;21482;-65
2022/06/04 08:30:19;;;;;;;2.95;1.50;;;;;;;28.53;26.68;100893.38;1690924;81;21054;-66
2022/06/04 08:32:48;;;;;;;2.05;1.60;;;;;;;28.47;26.91;100895.45;1761855;81;21009;-64
2022/06/04 08:35:17;;;;;;;3.45;1.60;;;;;;;28.52;26.11;100891.71;1762094;81;21049;-64
2022/06/04 08:37:46;;;;;;;2.17;1.50;;;;;;;28.49;26.59;100892.32;1761876;81;21105;-64
2022/06/04 08:40:39;;;;;;;4.08;2.02;;;;;;;28.56;26.67;100886.56;1761972;81;21466;-64
2022/06/04 08:43:33;;;;;;;1.85;1.35;;;;;;;28.63;26.64;100892.69;1761724;81;21105;-63
2022/06/04 08:46:05;;;;;;;3.12;1.62;;;;;;;28.67;25.63;100887.27;1761530;80;21113;-63
2022/06/04 08:48:37;;;;;;;1.90;1.55;;;;;;;28.76;26.19;100878.94;1756618;81;21074;-62
2022/06/04 08:51:13;;;;;;;3.45;1.60;;;;;;;28.91;25.91;100881.53;1752239;81;21058;-63
2022/06/04 08:53:43;;;;;;;1.72;1.60;;;;;;;28.94;25.82;100878.09;1751952;81;21086;-64
2022/06/04 08:59:29;;;;;;;4.67;1.90;;;;;;;29.00;25.52;100882.50;1752165;81;21047;-63
2022/06/04 09:02:00;;;;;;;2.08;1.60;;;;;;;28.91;25.94;100877.30;1752310;82;21066;-64
2022/06/04 09:04:53;;;;;;;2.20;1.47;;;;;;;28.82;26.47;100876.30;1752352;82;21086;-62
2022/06/04 09:07:34;;;;;;;2.12;1.72;;;;;;;28.85;26.30;100872.89;1752291;80;21010;-63
2022/06/04 09:10:14;;;;;;;3.47;1.57;;;;;;;28.70;26.40;100866.34;1752037;80;21129;-64
2022/06/04 09:13:03;;;;;;;1.95;1.50;;;;;;;28.47;26.32;100870.07;1749641;82;21034;-62
2022/06/04 09:15:41;;;;;;;3.25;1.95;;;;;;;28.30;26.48;100866.95;1723728;80;21073;-63
2022/06/04 09:18:32;;;;;;;4.17;1.87;;;;;;;28.18;26.87;100855.27;1752033;82;21535;-62
2022/06/04 09:21:02;;;;;;;6.50;2.90;;;;;;;28.13;26.99;100865.20;1752494;82;20986;-64
2022/06/04 09:23:37;;;;;;;4.33;1.90;;;;;;;28.14;27.38;100858.43;1752411;81;21508;-62
2022/06/04 09:26:19;;;;;;;4.12;1.80;;;;;;;28.20;27.27;100848.76;1752326;82;21066;-62
2022/06/04 09:29:11;;;;;;;2.67;1.62;;;;;;;28.19;26.46;100853.56;1752128;82;21066;-63
2022/06/04 09:31:50;;;;;;;2.65;1.60;;;;;;;28.19;26.46;100853.56;1752545;80;21066;-62
2022/06/04 09:34:25;;;;;;;1.75;1.50;;;;;;;28.05;26.74;100852.06;1752198;82;21058;-63
2022/06/04 09:36:54;;;;;;;1.55;1.40;;;;;;;28.00;26.77;100847.91;1752301;81;21002;-64
2022/06/04 09:39:29;;;;;;;4.37;1.70;;;;;;;27.92;26.69;100852.78;1752125;82;21477;-61
2022/06/04 09:42:23;;;;;;;4.95;2.17;;;;;;;27.70;26.49;100845.48;1752488;82;21066;-63
2022/06/04 09:45:01;;;;;;;1.95;1.60;;;;;;;27.38;27.03;100839.92;1752420;81;21447;-63
2022/06/04 09:47:51;;;;;;;5.17;1.82;;;;;;;27.28;26.93;100837.20;1752414;82;21054;-64
2022/06/04 09:50:26;;;;;;;4.15;2.00;;;;;;;27.15;27.11;100837.34;1752374;82;21030;-63
2022/06/04 09:53:20;;;;;;;2.70;2.05;;;;;;;26.96;27.78;100836.95;1750168;80;21162;-61
2022/06/04 09:56:03;;;;;;;6.40;2.42;;;;;;;26.82;28.35;100841.02;1721647;80;21450;-63
2022/06/04 09:58:38;;;;;;;2.33;1.80;;;;;;;26.69;29.00;100836.91;1737608;80;21023;-65
2022/06/04 10:01:18;;;;;;;3.00;2.00;;;;;;;26.58;28.94;100840.08;1737935;82;21015;-64
2022/06/04 10:04:14;;;;;;;1.77;1.67;;;;;;;26.40;29.81;100830.37;1752565;82;21055;-63
2022/06/04 10:06:43;;;;;;;3.60;1.90;;;;;;;26.32;29.78;100833.22;1750494;81;21439;-63
2022/06/04 10:12:10;;;;;;;2.08;1.90;;;;;;;26.19;30.15;100827.69;1746760;82;21059;-64
2022/06/04 10:14:40;;;;;;;3.37;1.95;;;;;;;26.10;29.90;100814.55;1743094;82;21015;-65
2022/06/04 10:17:20;;;;;;;3.77;1.82;;;;;;;26.04;30.26;100816.56;1752247;82;21034;-63
2022/06/04 10:19:55;;;;;;;2.02;1.80;;;;;;;26.00;30.29;100812.62;1751798;82;21045;-65
2022/06/04 10:22:24;;;;;;;1.75;1.65;;;;;;;26.03;29.78;100816.84;1751924;82;21006;-64
2022/06/04 10:24:55;;;;;;;4.42;2.25;;;;;;;26.06;29.61;100815.70;1746119;82;20998;-65
2022/06/04 10:27:38;;;;;;;5.42;2.52;;;;;;;26.04;29.50;100811.50;1743178;82;20954;-64
2022/06/04 10:30:35;;;;;;;7.25;2.08;;;;;;;26.06;29.25;100807.28;1743170;82;20978;-63
2022/06/04 10:33:30;;;;;;;2.35;1.85;;;;;;;26.06;29.09;100805.03;1743326;82;21002;-65
2022/06/04 10:36:13;;;;;;;2.15;1.70;;;;;;;25.99;29.50;100797.47;1742180;82;21033;-64
2022/06/04 10:39:09;;;;;;;2.22;2.00;;;;;;;25.94;29.94;100798.90;1712319;82;21447;-64
2022/06/04 10:41:55;;;;;;;4.75;2.00;;;;;;;25.83;30.30;100802.34;1748295;82;21055;-65
2022/06/04 10:44:51;;;;;;;3.92;2.12;;;;;;;25.83;30.47;100793.91;1752591;82;21058;-64
2022/06/04 10:47:35;;;;;;;7.42;2.45;;;;;;;25.79;30.05;100788.60;1749302;81;21500;-64
2022/06/04 10:50:25;;;;;;;2.80;1.90;;;;;;;25.67;30.51;100790.35;1756769;80;21034;-64
2022/06/04 10:53:02;;;;;;;10.55;2.67;;;;;;;25.69;30.35;100792.30;1746552;80;21030;-64
2022/06/04 10:55:43;;;;;;;4.97;2.15;;;;;;;25.67;30.69;100790.92;1755892;81;21022;-61
2022/06/04 10:58:26;;;;;;;2.20;1.82;;;;;;;25.71;30.90;100791.45;1766381;80;21438;-66
2022/06/04 11:01:33;;;;;;;2.12;1.80;;;;;;;25.79;31.02;100784.39;1767913;80;21059;-65
2022/06/04 11:04:20;;;;;;;2.95;1.70;;;;;;;25.86;30.64;100787.16;1746922;80;21073;-64
2022/06/04 11:06:54;;;;;;;4.92;2.10;;;;;;;25.86;30.80;100787.16;1749062;80;21055;-63
2022/06/04 11:09:34;;;;;;;3.08;1.90;;;;;;;25.87;30.93;100787.42;1749256;80;21093;-64
2022/06/04 11:12:39;;;;;;;4.12;1.90;;;;;;;25.93;29.79;100785.42;1706357;82;21462;-63
2022/06/04 11:15:22;;;;;;;2.17;1.90;;;;;;;25.79;30.29;100786.63;1771515;80;21073;-64
2022/06/04 11:18:17;;;;;;;2.87;1.90;;;;;;;25.60;30.50;100790.64;1731450;83;21050;-63
2022/06/04 11:20:55;;;;;;;5.33;2.02;;;;;;;25.43;30.55;100781.73;1740121;80;20998;-63
2022/06/04 11:23:59;;;;;;;2.47;1.80;;;;;;;25.31;30.61;100778.39;1756195;81;21025;-63
2022/06/04 11:26:36;;;;;;;1.80;1.70;;;;;;;25.21;31.20;100777.02;1749733;81;21030;-63
2022/06/04 11:29:05;;;;;;;3.37;1.90;;;;;;;25.16;31.08;100769.47;1737620;81;21101;-63
2022/06/04 11:31:46;;;;;;;2.25;2.00;;;;;;;25.12;31.26;100762.75;1762179;81;21014;-61
2022/06/04 11:34:24;;;;;;;2.35;1.98;;;;;;;25.13;31.42;100753.22;1749556;81;21029;-62
2022/06/04 11:37:06;;;;;;;6.20;2.35;;;;;;;25.24;31.62;100753.45;1738231;81;21046;-63
2022/06/04 11:39:48;;;;;;;2.58;2.17;;;;;;;25.32;31.40;100763.23;1746255;80;21472;-64
2022/06/04 11:42:51;;;;;;;3.08;2.08;;;;;;;25.32;31.01;100759.59;1745002;81;21062;-64
2022/06/04 11:45:51;;;;;;;3.47;1.90;;;;;;;25.21;30.91;100754.59;1731851;83;21057;-64
2022/06/04 11:48:34;;;;;;;3.42;2.27;;;;;;;25.06;31.35;100749.88;1731603;82;21050;-63
2022/06/04 11:51:29;;;;;;;9.65;3.00;;;;;;;25.09;31.65;100751.27;1712898;83;21074;-64
2022/06/04 11:54:13;;;;;;;2.98;2.20;;;;;;;25.10;31.26;100740.33;1722386;83;21066;-64
2022/06/04 11:57:26;;;;;;;3.85;2.40;;;;;;;25.16;31.65;100743.39;1739027;82;21015;-62
2022/06/04 12:00:23;;;;;;;3.00;1.90;;;;;;;25.22;31.32;100740.28;1752338;82;20991;-63
2022/06/04 12:03:04;;;;;;;4.10;2.10;;;;;;;25.29;31.04;100735.76;1752369;80;21062;-64
2022/06/04 12:05:57;;;;;;;3.08;1.80;;;;;;;25.40;30.86;100729.00;1741805;80;21550;-63
2022/06/04 12:08:41;;;;;;;5.65;2.45;;;;;;;25.47;30.71;100730.93;1752535;81;21066;-63
2022/06/04 12:11:36;;;;;;;2.90;2.00;;;;;;;25.53;30.95;100733.14;1745966;82;21105;-64
2022/06/04 12:14:29;;;;;;;2.37;1.92;;;;;;;25.58;30.10;100725.53;1721103;83;21035;-65